createdAt,value
2023-01-29T00:00:10.470Z,15.00
2023-01-29T00:02:41.352Z,12.80
2023-01-29T00:05:26.424Z,16.20
2023-01-29T00:07:56.689Z,12.90
2023-01-29T00:10:25.367Z,18.70
2023-01-29T00:12:54.049Z,14.20
2023-01-29T00:15:22.253Z,15.30
2023-01-29T00:17:51.305Z,15.00
2023-01-29T00:20:19.703Z,16.40
2023-01-29T00:22:48.065Z,20.20
2023-01-29T00:25:16.189Z,14.50
2023-01-29T00:27:44.875Z,13.30
2023-01-29T00:30:13.836Z,14.10
2023-01-29T00:32:42.368Z,16.00
2023-01-29T00:35:10.479Z,14.90
2023-01-29T00:37:38.791Z,17.20
2023-01-29T00:40:07.679Z,16.20
2023-01-29T00:42:54.577Z,15.40
2023-01-29T00:45:23.601Z,16.20
2023-01-29T00:47:52.058Z,17.40
2023-01-29T00:50:20.366Z,18.60
2023-01-29T00:52:50.375Z,13.70
2023-01-29T00:55:19.065Z,15.30
2023-01-29T00:57:47.458Z,15.20
2023-01-29T01:00:16.990Z,15.30
2023-01-29T01:03:04.584Z,14.20
2023-01-29T01:05:33.799Z,12.70
2023-01-29T01:08:02.443Z,16.90
2023-01-29T01:10:32.229Z,13.30
2023-01-29T01:13:01.701Z,16.80
2023-01-29T01:15:31.014Z,13.60
2023-01-29T01:18:00.144Z,14.10
2023-01-29T01:20:29.479Z,12.70
2023-01-29T01:22:57.693Z,14.40
2023-01-29T01:25:26.090Z,17.70
2023-01-29T01:27:54.564Z,15.60
2023-01-29T01:30:23.969Z,13.30
2023-01-29T01:32:52.562Z,14.50
2023-01-29T01:35:22.587Z,18.90
2023-01-29T01:37:50.970Z,15.90
2023-01-29T01:40:20.891Z,13.80
2023-01-29T01:42:49.781Z,17.10
2023-01-29T01:45:24.486Z,17.90
2023-01-29T01:48:13.229Z,14.50
2023-01-29T01:50:52.597Z,18.10
2023-01-29T01:53:37.759Z,15.80
2023-01-29T01:56:07.469Z,19.00
2023-01-29T01:58:37.731Z,16.60
2023-01-29T02:01:06.813Z,18.20
2023-01-29T02:03:54.256Z,15.70
2023-01-29T02:06:41.002Z,16.20
2023-01-29T02:09:29.401Z,17.20
2023-01-29T02:11:57.947Z,18.70
2023-01-29T02:14:26.653Z,19.80
2023-01-29T02:16:55.122Z,20.20
2023-01-29T02:19:29.442Z,16.40
2023-01-29T02:22:11.948Z,20.10
2023-01-29T02:24:45.131Z,17.00
2023-01-29T02:27:20.272Z,16.20
2023-01-29T02:30:11.175Z,14.50
2023-01-29T02:32:42.020Z,15.50
2023-01-29T02:35:32.024Z,16.40
2023-01-29T02:38:18.915Z,16.00
2023-01-29T02:40:55.791Z,17.40
2023-01-29T02:43:29.901Z,19.20
2023-01-29T02:46:07.592Z,17.60
2023-01-29T02:48:56.938Z,15.40
2023-01-29T02:51:45.397Z,11.80
2023-01-29T02:54:23.405Z,14.00
2023-01-29T02:56:56.390Z,15.00
2023-01-29T02:59:44.542Z,12.30
2023-01-29T03:02:14.280Z,16.20
2023-01-29T03:04:47.537Z,15.70
2023-01-29T03:07:35.141Z,15.70
2023-01-29T03:10:04.254Z,17.30
2023-01-29T03:12:36.481Z,16.10
2023-01-29T03:15:17.904Z,13.80
2023-01-29T03:18:10.138Z,18.60
2023-01-29T03:20:48.458Z,14.80
2023-01-29T03:23:18.925Z,14.80
2023-01-29T03:26:06.437Z,14.40
2023-01-29T03:28:54.015Z,14.50
2023-01-29T03:31:41.595Z,12.50
2023-01-29T03:34:24.879Z,14.40
2023-01-29T03:36:57.986Z,16.50
2023-01-29T03:39:28.519Z,12.70
2023-01-29T03:41:58.037Z,15.00
2023-01-29T03:44:29.438Z,13.90
2023-01-29T03:47:16.766Z,15.60
2023-01-29T03:49:45.127Z,14.50
2023-01-29T03:52:17.889Z,12.80
2023-01-29T03:54:53.543Z,13.10
2023-01-29T03:57:31.283Z,18.90
2023-01-29T03:59:59.391Z,16.90
2023-01-29T04:02:52.620Z,16.80
2023-01-29T04:05:21.529Z,15.50
2023-01-29T04:08:02.262Z,12.80
2023-01-29T04:10:30.859Z,15.80
2023-01-29T04:13:00.459Z,12.30
2023-01-29T04:15:31.106Z,13.90
2023-01-29T04:17:59.326Z,14.60
2023-01-29T04:20:35.835Z,15.90
2023-01-29T04:23:05.708Z,16.40
2023-01-29T04:25:42.551Z,15.70
2023-01-29T04:28:16.565Z,12.70
2023-01-29T04:30:45.308Z,15.20
2023-01-29T04:33:21.690Z,15.20
2023-01-29T04:36:06.291Z,14.80
2023-01-29T04:41:07.917Z,12.10
2023-01-29T04:43:39.408Z,13.40
2023-01-29T04:46:08.001Z,14.30
2023-01-29T04:48:39.517Z,15.30
2023-01-29T04:51:12.545Z,13.00
2023-01-29T04:53:58.989Z,14.70
2023-01-29T04:56:43.741Z,14.80
2023-01-29T04:59:20.984Z,12.60
2023-01-29T05:04:18.264Z,16.30
2023-01-29T05:06:47.427Z,12.60
2023-01-29T05:09:15.854Z,14.50
2023-01-29T05:11:44.109Z,12.60
2023-01-29T05:14:12.150Z,13.10
2023-01-29T05:17:00.586Z,11.60
2023-01-29T05:19:28.996Z,13.10
2023-01-29T05:21:57.314Z,14.10
2023-01-29T05:24:26.067Z,11.20
2023-01-29T05:27:17.012Z,11.80
2023-01-29T05:29:46.105Z,10.90
2023-01-29T05:32:14.595Z,11.60
2023-01-29T05:34:43.692Z,12.50
2023-01-29T05:37:12.181Z,11.70
2023-01-29T05:39:40.769Z,11.10
2023-01-29T05:42:09.355Z,12.00
2023-01-29T05:44:37.534Z,12.90
2023-01-29T05:47:06.069Z,12.30
2023-01-29T05:49:34.109Z,12.00
2023-01-29T05:52:02.822Z,13.90
2023-01-29T05:54:31.479Z,10.90
2023-01-29T05:56:59.722Z,13.20
2023-01-29T05:59:31.369Z,12.30
2023-01-29T06:01:59.815Z,15.00
2023-01-29T06:04:27.984Z,12.50
2023-01-29T06:06:57.288Z,12.60
2023-01-29T06:09:25.778Z,14.30
2023-01-29T06:11:53.984Z,11.20
2023-01-29T06:14:22.090Z,14.10
2023-01-29T06:16:50.189Z,10.10
2023-01-29T06:19:18.408Z,16.40
2023-01-29T06:21:46.593Z,10.40
2023-01-29T06:24:14.969Z,11.60
2023-01-29T06:26:43.239Z,9.50
2023-01-29T06:29:11.331Z,13.30
2023-01-29T06:31:40.015Z,16.10
2023-01-29T06:34:08.517Z,12.70
2023-01-29T06:36:36.874Z,12.50
2023-01-29T06:39:05.391Z,11.80
2023-01-29T06:41:33.744Z,13.30
2023-01-29T06:44:02.082Z,15.30
2023-01-29T06:46:30.833Z,13.90
2023-01-29T06:49:00.453Z,15.50
2023-01-29T06:51:29.450Z,15.60
2023-01-29T06:53:57.767Z,12.80
2023-01-29T06:56:25.907Z,17.10
2023-01-29T06:58:54.845Z,13.20
2023-01-29T07:01:35.212Z,13.40
2023-01-29T07:04:04.543Z,16.40
2023-01-29T07:06:33.557Z,15.50
2023-01-29T07:09:02.351Z,14.20
2023-01-29T07:11:35.026Z,13.80
2023-01-29T07:14:03.288Z,15.30
2023-01-29T07:16:31.954Z,15.30
2023-01-29T07:19:00.315Z,19.40
2023-01-29T07:21:29.577Z,14.70
2023-01-29T07:23:57.780Z,15.10
2023-01-29T07:26:26.254Z,14.40
2023-01-29T07:28:54.634Z,15.00
2023-01-29T07:31:23.294Z,18.10
2023-01-29T07:33:53.144Z,16.30
2023-01-29T07:37:16.169Z,18.10
2023-01-29T07:39:44.637Z,15.20
2023-01-29T07:42:12.809Z,18.90
2023-01-29T07:44:41.103Z,17.60
2023-01-29T07:47:09.292Z,20.50
2023-01-29T07:49:39.525Z,21.20
2023-01-29T07:52:07.895Z,18.50
2023-01-29T07:54:36.196Z,25.10
2023-01-29T07:57:05.339Z,22.70
2023-01-29T07:59:33.680Z,17.40
2023-01-29T08:02:01.850Z,22.90
2023-01-29T08:04:31.568Z,16.50
2023-01-29T08:07:00.065Z,20.40
2023-01-29T08:09:28.441Z,19.90
2023-01-29T08:11:56.934Z,18.80
2023-01-29T08:14:25.107Z,17.90
2023-01-29T08:16:53.758Z,18.70
2023-01-29T08:19:22.181Z,18.90
2023-01-29T08:21:50.309Z,14.60
2023-01-29T08:24:18.584Z,16.10
2023-01-29T08:26:46.701Z,16.30
2023-01-29T08:29:14.903Z,17.10
2023-01-29T08:32:02.836Z,17.50
2023-01-29T08:34:31.699Z,16.90
2023-01-29T08:37:00.135Z,14.20
2023-01-29T08:39:28.372Z,15.50
2023-01-29T08:42:00.634Z,14.80
2023-01-29T08:44:29.255Z,16.40
2023-01-29T08:46:57.485Z,14.60
2023-01-29T08:49:25.944Z,15.80
2023-01-29T08:51:56.878Z,14.70
2023-01-29T08:54:25.562Z,16.00
2023-01-29T08:56:53.762Z,15.70
2023-01-29T08:59:23.049Z,14.40
2023-01-29T09:01:51.188Z,16.50
2023-01-29T09:04:19.401Z,15.40
2023-01-29T09:06:47.777Z,17.30
2023-01-29T09:09:15.964Z,18.60
2023-01-29T09:11:44.822Z,15.00
2023-01-29T09:14:15.686Z,19.10
2023-01-29T09:16:44.013Z,17.30
2023-01-29T09:19:12.204Z,15.50
2023-01-29T09:21:40.515Z,14.80
2023-01-29T09:24:08.760Z,17.60
2023-01-29T09:26:37.378Z,16.80
2023-01-29T09:29:05.588Z,16.80
2023-01-29T09:31:33.937Z,17.40
2023-01-29T09:34:02.240Z,20.30
2023-01-29T09:36:32.285Z,21.00
2023-01-29T09:39:00.531Z,15.60
2023-01-29T09:41:49.601Z,15.10
2023-01-29T09:44:27.211Z,16.00
2023-01-29T09:46:55.525Z,19.90
2023-01-29T09:49:23.674Z,17.50
2023-01-29T09:51:53.640Z,19.00
2023-01-29T09:54:26.673Z,16.40
2023-01-29T09:56:56.186Z,17.50
2023-01-29T09:59:25.515Z,17.50
2023-01-29T10:01:56.359Z,19.30
2023-01-29T10:04:33.391Z,17.50
2023-01-29T10:07:13.179Z,19.80
2023-01-29T10:09:54.568Z,16.50
2023-01-29T10:12:29.000Z,19.10
2023-01-29T10:15:01.955Z,16.90
2023-01-29T10:17:39.100Z,19.90
2023-01-29T10:20:26.248Z,16.90
2023-01-29T10:23:03.186Z,18.30
2023-01-29T10:25:31.478Z,21.40
2023-01-29T10:27:59.595Z,18.90
2023-01-29T10:30:35.835Z,18.90
2023-01-29T10:33:05.536Z,22.90
2023-01-29T10:35:38.631Z,20.20
2023-01-29T10:38:44.161Z,18.10
2023-01-29T10:41:25.577Z,19.00
2023-01-29T10:43:54.059Z,25.70
2023-01-29T10:46:35.709Z,27.20
2023-01-29T10:49:07.003Z,22.80
2023-01-29T10:51:44.695Z,24.00
2023-01-29T10:54:13.868Z,21.60
2023-01-29T10:56:54.413Z,23.90
2023-01-29T10:59:41.377Z,19.40
2023-01-29T11:02:13.229Z,24.40
2023-01-29T11:04:41.648Z,25.70
2023-01-29T11:07:09.985Z,23.60
2023-01-29T11:09:57.680Z,23.20
2023-01-29T11:12:30.680Z,27.00
2023-01-29T11:15:01.291Z,23.90
2023-01-29T11:17:29.860Z,25.30
2023-01-29T11:19:58.691Z,22.10
2023-01-29T11:22:27.659Z,22.00
2023-01-29T11:25:14.898Z,23.30
2023-01-29T11:28:02.172Z,25.50
2023-01-29T11:30:39.980Z,22.40
2023-01-29T11:33:22.205Z,28.20
2023-01-29T11:35:52.847Z,25.20
2023-01-29T11:38:25.469Z,24.00
2023-01-29T11:40:53.848Z,25.90
2023-01-29T11:43:30.035Z,22.40
2023-01-29T11:46:12.204Z,25.90
2023-01-29T11:48:42.937Z,25.40
2023-01-29T11:51:13.296Z,22.50
2023-01-29T11:53:45.813Z,24.30
2023-01-29T11:56:17.587Z,26.10
2023-01-29T11:58:45.681Z,26.50
2023-01-29T12:01:15.063Z,24.40
2023-01-29T12:03:44.621Z,27.40
2023-01-29T12:06:19.209Z,26.20
2023-01-29T12:11:25.204Z,26.00
2023-01-29T12:13:54.097Z,23.40
2023-01-29T12:16:46.365Z,29.40
2023-01-29T12:19:23.551Z,26.20
2023-01-29T12:22:14.864Z,23.40
2023-01-29T12:24:43.005Z,26.00
2023-01-29T12:27:19.929Z,25.60
2023-01-29T12:30:02.635Z,22.00
2023-01-29T12:32:34.305Z,25.90
2023-01-29T12:35:21.418Z,25.90
2023-01-29T12:38:10.265Z,21.70
2023-01-29T12:40:46.424Z,22.20
2023-01-29T12:43:18.627Z,22.80
2023-01-29T12:45:47.615Z,22.20
2023-01-29T12:48:16.637Z,24.10
2023-01-29T12:50:46.511Z,21.00
2023-01-29T12:53:17.828Z,21.30
2023-01-29T12:55:48.184Z,21.50
2023-01-29T12:58:20.379Z,23.10
2023-01-29T13:00:49.316Z,20.10
2023-01-29T13:03:22.791Z,21.30
2023-01-29T13:05:51.288Z,20.50
2023-01-29T13:08:26.296Z,19.40
2023-01-29T13:10:57.970Z,20.40
2023-01-29T13:13:37.526Z,21.60
2023-01-29T13:16:07.298Z,18.70
2023-01-29T13:18:46.301Z,20.40
2023-01-29T13:21:18.530Z,21.80
2023-01-29T13:23:48.017Z,24.00
2023-01-29T13:26:22.710Z,22.10
2023-01-29T13:28:51.445Z,21.60
2023-01-29T13:31:22.728Z,24.30
2023-01-29T13:34:10.966Z,19.50
2023-01-29T13:36:43.026Z,20.60
2023-01-29T13:39:19.947Z,21.80
2023-01-29T13:41:48.162Z,18.80
2023-01-29T13:44:37.145Z,22.10
2023-01-29T13:47:09.868Z,22.60
2023-01-29T13:49:42.818Z,20.30
2023-01-29T13:52:21.869Z,23.10
2023-01-29T13:54:51.496Z,19.50
2023-01-29T13:57:41.302Z,20.30
2023-01-29T14:00:21.747Z,21.10
2023-01-29T14:02:56.143Z,23.40
2023-01-29T14:05:30.681Z,23.50
2023-01-29T14:08:03.552Z,28.80
2023-01-29T14:10:32.639Z,21.70
2023-01-29T14:13:19.461Z,22.30
2023-01-29T14:16:10.811Z,20.70
2023-01-29T14:18:46.982Z,19.40
2023-01-29T14:21:22.248Z,21.10
2023-01-29T14:23:54.883Z,21.90
2023-01-29T14:26:32.975Z,21.10
2023-01-29T14:29:18.781Z,21.30
2023-01-29T14:31:55.838Z,21.30
2023-01-29T14:34:24.571Z,22.40
2023-01-29T14:36:56.092Z,21.80
2023-01-29T14:39:50.701Z,20.70
2023-01-29T14:42:21.469Z,22.30
2023-01-29T14:44:55.829Z,22.80
2023-01-29T14:47:29.788Z,30.90
2023-01-29T14:49:58.425Z,21.50
2023-01-29T14:52:35.846Z,24.10
2023-01-29T14:55:05.829Z,23.20
2023-01-29T14:57:34.217Z,25.20
2023-01-29T15:00:05.626Z,27.20
2023-01-29T15:02:41.542Z,25.70
2023-01-29T15:05:11.972Z,29.30
2023-01-29T15:08:00.155Z,25.10
2023-01-29T15:10:29.252Z,24.80
2023-01-29T15:13:00.696Z,26.20
2023-01-29T15:15:36.827Z,24.20
2023-01-29T15:18:07.067Z,26.80
2023-01-29T15:20:39.428Z,31.50
2023-01-29T15:23:31.149Z,31.70
2023-01-29T15:26:01.975Z,29.60
2023-01-29T15:28:31.710Z,25.60
2023-01-29T15:31:01.430Z,27.50
2023-01-29T15:33:30.405Z,26.40
2023-01-29T15:36:07.419Z,24.80
2023-01-29T15:38:36.465Z,26.60
2023-01-29T15:41:17.887Z,19.90
2023-01-29T15:43:51.933Z,21.90
2023-01-29T15:46:25.715Z,25.00
2023-01-29T15:48:57.652Z,23.00
2023-01-29T15:51:27.184Z,22.20
2023-01-29T15:53:56.297Z,24.00
2023-01-29T15:56:38.593Z,26.50
2023-01-29T15:59:09.793Z,24.90
2023-01-29T16:01:38.298Z,20.50
2023-01-29T16:04:06.527Z,22.40
2023-01-29T16:06:39.544Z,22.80
2023-01-29T16:09:08.713Z,25.10
2023-01-29T16:11:37.072Z,18.80
2023-01-29T16:14:05.644Z,20.30
2023-01-29T16:16:36.825Z,20.60
2023-01-29T16:19:13.665Z,18.20
2023-01-29T16:21:42.049Z,21.00
2023-01-29T16:24:12.052Z,24.10
2023-01-29T16:26:43.282Z,20.80
2023-01-29T16:29:12.333Z,23.30
2023-01-29T16:31:40.544Z,21.70
2023-01-29T16:34:29.284Z,22.80
2023-01-29T16:37:00.448Z,20.20
2023-01-29T16:39:36.711Z,20.40
2023-01-29T16:42:12.375Z,21.50
2023-01-29T16:44:40.634Z,17.00
2023-01-29T16:47:13.188Z,21.60
2023-01-29T16:49:46.274Z,15.90
2023-01-29T16:52:19.750Z,18.30
2023-01-29T16:54:48.244Z,18.70
2023-01-29T16:57:21.417Z,18.10
2023-01-29T16:59:53.196Z,18.90
2023-01-29T17:02:39.437Z,18.90
2023-01-29T17:05:10.795Z,17.50
2023-01-29T17:07:39.968Z,17.20
2023-01-29T17:10:15.216Z,18.60
2023-01-29T17:12:44.850Z,17.60
2023-01-29T17:15:28.669Z,14.60
2023-01-29T17:17:56.847Z,18.10
2023-01-29T17:20:25.821Z,15.60
2023-01-29T17:22:55.126Z,16.70
2023-01-29T17:25:23.948Z,14.90
2023-01-29T17:27:53.625Z,21.30
2023-01-29T17:30:22.338Z,15.90
2023-01-29T17:32:51.313Z,15.90
2023-01-29T17:35:21.729Z,16.60
2023-01-29T17:37:49.948Z,14.30
2023-01-29T17:40:35.537Z,14.60
2023-01-29T17:43:03.804Z,14.40
2023-01-29T17:45:32.310Z,12.70
2023-01-29T17:48:00.568Z,14.70
2023-01-29T17:50:30.216Z,14.20
2023-01-29T17:52:58.503Z,13.00
2023-01-29T17:55:30.572Z,12.60
2023-01-29T17:57:59.511Z,12.10
2023-01-29T18:00:27.627Z,12.80
2023-01-29T18:03:01.771Z,12.30
2023-01-29T18:05:30.265Z,15.20
2023-01-29T18:07:58.436Z,16.00
2023-01-29T18:10:26.998Z,13.00
2023-01-29T18:12:55.358Z,12.40
2023-01-29T18:15:23.560Z,14.30
2023-01-29T18:17:53.469Z,10.00
2023-01-29T18:20:23.670Z,12.80
2023-01-29T18:22:52.224Z,12.00
2023-01-29T18:25:21.157Z,12.40
2023-01-29T18:27:50.332Z,11.70
2023-01-29T18:30:18.553Z,12.00
2023-01-29T18:32:48.334Z,12.70
2023-01-29T18:35:20.016Z,9.30
2023-01-29T18:37:49.124Z,11.40
2023-01-29T18:40:17.716Z,13.40
2023-01-29T18:42:45.973Z,10.20
2023-01-29T18:45:15.776Z,11.40
2023-01-29T18:47:49.419Z,10.80
2023-01-29T18:50:17.733Z,7.30
2023-01-29T18:52:45.930Z,12.90
2023-01-29T18:55:14.402Z,11.80
2023-01-29T18:58:27.380Z,13.40
2023-01-29T19:00:31.757Z,10.10
2023-01-29T19:03:00.020Z,13.00
2023-01-29T19:05:28.159Z,15.60
2023-01-29T19:07:56.781Z,13.30
2023-01-29T19:10:24.929Z,12.20
2023-01-29T19:12:53.487Z,10.90
2023-01-29T19:15:23.455Z,12.70
2023-01-29T19:17:52.236Z,11.20
2023-01-29T19:20:20.548Z,9.60
2023-01-29T19:22:49.133Z,11.00
2023-01-29T19:25:19.741Z,13.10
2023-01-29T19:27:48.117Z,12.00
2023-01-29T19:30:16.345Z,10.30
2023-01-29T19:32:44.906Z,13.80
2023-01-29T19:35:14.152Z,12.90
2023-01-29T19:37:43.006Z,17.40
2023-01-29T19:40:11.443Z,11.50
2023-01-29T19:42:41.075Z,11.60
2023-01-29T19:45:10.086Z,12.70
2023-01-29T19:47:42.826Z,14.40
2023-01-29T19:50:11.340Z,10.50
2023-01-29T19:52:55.319Z,11.60
2023-01-29T19:56:16.856Z,14.50
2023-01-29T19:58:45.129Z,11.60
2023-01-29T20:01:15.067Z,11.90
2023-01-29T20:03:46.660Z,11.80
2023-01-29T20:06:18.961Z,13.30
2023-01-29T20:08:47.512Z,13.10
2023-01-29T20:11:16.597Z,12.10
2023-01-29T20:13:47.049Z,13.50
2023-01-29T20:16:16.320Z,11.70
2023-01-29T20:18:45.953Z,11.90
2023-01-29T20:21:15.556Z,12.00
2023-01-29T20:23:45.855Z,12.60
2023-01-29T20:26:16.057Z,13.00
2023-01-29T20:28:47.971Z,14.40
2023-01-29T20:31:16.248Z,13.20
2023-01-29T20:33:44.511Z,13.20
2023-01-29T20:36:12.957Z,11.00
2023-01-29T20:38:41.437Z,13.70
2023-01-29T20:41:13.324Z,13.50
2023-01-29T20:43:41.865Z,11.00
2023-01-29T20:46:10.495Z,13.00
2023-01-29T20:48:38.832Z,16.40
2023-01-29T20:51:09.425Z,14.20
2023-01-29T20:53:37.833Z,10.40
2023-01-29T20:56:11.295Z,8.90
2023-01-29T20:58:41.233Z,10.80
2023-01-29T21:01:10.265Z,12.20
2023-01-29T21:03:39.046Z,11.20
2023-01-29T21:06:07.664Z,9.70
2023-01-29T21:08:36.929Z,10.40
2023-01-29T21:11:06.170Z,11.50
2023-01-29T21:13:34.596Z,10.90
2023-01-29T21:16:03.265Z,9.60
2023-01-29T21:18:32.448Z,11.30
2023-01-29T21:21:00.839Z,11.70
2023-01-29T21:23:29.555Z,10.10
2023-01-29T21:26:04.640Z,11.50
2023-01-29T21:28:33.022Z,11.70
2023-01-29T21:31:05.599Z,10.90
2023-01-29T21:33:35.049Z,12.60
2023-01-29T21:36:04.454Z,12.10
2023-01-29T21:38:32.959Z,14.50
2023-01-29T21:41:02.435Z,12.20
2023-01-29T21:43:30.920Z,12.90
2023-01-29T21:46:00.094Z,12.00
2023-01-29T21:48:30.488Z,12.00
2023-01-29T21:50:58.747Z,10.70
2023-01-29T21:53:27.450Z,12.40
2023-01-29T21:56:03.210Z,13.10
2023-01-29T21:58:32.107Z,12.00
2023-01-29T22:01:37.939Z,12.70
2023-01-29T22:04:09.091Z,10.40
2023-01-29T22:06:37.245Z,12.70
2023-01-29T22:09:07.666Z,11.60
2023-01-29T22:11:36.905Z,12.90
2023-01-29T22:14:05.636Z,10.80
2023-01-29T22:16:34.472Z,13.20
2023-01-29T22:19:02.764Z,14.10
2023-01-29T22:21:31.312Z,13.40
2023-01-29T22:23:59.859Z,14.20
2023-01-29T22:26:29.716Z,14.10
2023-01-29T22:28:58.362Z,14.20
2023-01-29T22:31:26.850Z,12.70
2023-01-29T22:33:55.121Z,16.20
2023-01-29T22:36:23.531Z,13.80
2023-01-29T22:38:52.530Z,14.20
2023-01-29T22:41:20.790Z,11.20
2023-01-29T22:43:49.041Z,13.50
2023-01-29T22:46:17.218Z,10.90
2023-01-29T22:48:46.297Z,10.60
2023-01-29T22:51:14.788Z,11.60
2023-01-29T22:53:44.271Z,12.90
2023-01-29T22:56:13.101Z,12.40
2023-01-29T22:58:41.640Z,11.20
2023-01-29T23:01:10.084Z,14.20
2023-01-29T23:03:38.381Z,12.10
2023-01-29T23:06:06.808Z,10.70
2023-01-29T23:08:35.136Z,12.40
2023-01-29T23:11:15.430Z,11.10
2023-01-29T23:13:47.617Z,12.20
2023-01-29T23:16:16.158Z,10.00
2023-01-29T23:18:44.935Z,10.40
2023-01-29T23:21:13.303Z,12.20
2023-01-29T23:23:43.107Z,15.70
2023-01-29T23:26:31.314Z,15.70
2023-01-29T23:28:59.966Z,12.60
2023-01-29T23:31:28.228Z,12.50
2023-01-29T23:33:57.836Z,11.40
2023-01-29T23:36:26.301Z,11.60
2023-01-29T23:38:54.533Z,11.40
2023-01-29T23:41:22.893Z,13.50
2023-01-29T23:43:53.225Z,12.20
2023-01-29T23:46:21.430Z,11.40
2023-01-29T23:48:50.301Z,13.60
2023-01-29T23:51:19.925Z,11.30
2023-01-29T23:53:49.460Z,11.60
2023-01-29T23:56:17.745Z,10.90
2023-01-29T23:58:47.642Z,14.10
